Feldkirch, Austria
Current Conditions -  °F | °C
As of 1:50 PM on Saturday 25 Oct 2014 (Local Time) from LSZR Reporting Station
Broken Clouds Broken Clouds  
Wind Chill: 52°   Ceiling: 5500
Heat Index: 52°   Visibility: 6mi
Dew Point: 43°   Wind: 3mph
Humidity: 71%   Direction: NA
Pressure: 30.15"   Gusts: NA
Location:  47.25°N, 9.59°E
Report Text: LSZR 251150Z VRB03KT 9999 BKN055 11/06 Q1021 NOSIG RMK G
Loading
Personal Weather Stations






























Interactive Weather Map
Tropical Storm Tracking
New forecast layout! Learn more

10-Day Weather Forecast

Advertisements
Track Severe Weather on mobile